Time;durP1;ratioP1;P1;durP2;ratioP2;P2;SDS_P1;SDS_P2;PMS_P1;PMS_P2;Temp;Humidity;BMP_temperature;BMP_pressure;BME280_temperature;BME280_humidity;BME280_pressure;Samples;Min_cycle;Max_cycle;Signal;HPM_P1;HPM_P2
2020/12/18 00:01:18;;;;;;;10.88;8.02;;;;;;;5.37;76.80;99716.56;5096060;28;20044;-65
2020/12/18 00:03:45;;;;;;;13.88;9.55;;;;;;;5.33;76.97;99713.41;5095655;28;20501;-66
2020/12/18 00:06:11;;;;;;;19.00;11.43;;;;;;;5.32;76.77;99714.38;5095830;28;20043;-65
2020/12/18 00:08:39;;;;;;;19.63;11.10;;;;;;;5.28;76.87;99705.13;5095694;28;20040;-66
2020/12/18 00:11:06;;;;;;;19.33;9.90;;;;;;;5.29;77.11;99701.53;5095764;28;20040;-66
2020/12/18 00:13:33;;;;;;;13.55;9.57;;;;;;;5.30;77.19;99702.34;5095448;28;20059;-65
2020/12/18 00:16:00;;;;;;;11.82;8.70;;;;;;;5.32;76.90;99695.19;5095942;28;20039;-66
2020/12/18 00:18:27;;;;;;;11.13;8.02;;;;;;;5.24;76.82;99701.13;5094128;28;20501;-65
2020/12/18 00:20:55;;;;;;;10.25;7.22;;;;;;;5.19;77.27;99706.78;5095517;28;20036;-66
2020/12/18 00:23:22;;;;;;;10.30;7.93;;;;;;;5.16;77.30;99707.03;5095291;28;20584;-66
2020/12/18 00:25:49;;;;;;;8.70;6.82;;;;;;;5.07;77.33;99710.47;5094065;28;20044;-66
2020/12/18 00:28:17;;;;;;;8.70;6.47;;;;;;;5.13;77.87;99704.69;5095416;28;20476;-66
2020/12/18 00:30:46;;;;;;;10.32;6.18;;;;;;;5.17;77.81;99711.31;5095418;28;20036;-66
2020/12/18 00:33:13;;;;;;;9.30;6.55;;;;;;;5.27;77.52;99711.34;5095372;28;20074;-66
2020/12/18 00:35:40;;;;;;;11.30;6.15;;;;;;;5.30;77.21;99712.84;5094965;28;20036;-65
2020/12/18 00:38:07;;;;;;;7.50;6.15;;;;;;;5.31;77.14;99706.66;5095155;28;20044;-65
2020/12/18 00:40:34;;;;;;;10.23;6.13;;;;;;;5.36;76.94;99715.75;5095160;28;20047;-66
2020/12/18 00:43:01;;;;;;;8.68;6.03;;;;;;;5.43;76.56;99718.66;5093850;28;20506;-66
2020/12/18 00:45:28;;;;;;;8.85;6.63;;;;;;;5.38;75.99;99708.56;5093483;28;20036;-66
2020/12/18 00:47:55;;;;;;;8.90;6.40;;;;;;;5.24;75.81;99703.72;5095122;28;20054;-66
2020/12/18 00:50:21;;;;;;;6.97;5.90;;;;;;;5.18;76.23;99712.13;5094923;28;20036;-66
2020/12/18 00:52:48;;;;;;;8.02;6.00;;;;;;;5.14;76.06;99706.34;5093669;28;20505;-65
2020/12/18 00:55:15;;;;;;;9.25;6.15;;;;;;;5.08;75.65;99700.81;5094588;28;20482;-65
2020/12/18 00:57:42;;;;;;;11.93;6.63;;;;;;;4.91;75.46;99705.75;5093477;28;20135;-66
2020/12/18 01:00:09;;;;;;;14.23;6.70;;;;;;;4.75;76.25;99702.81;5094861;28;20067;-66
2020/12/18 01:02:57;;;;;;;8.25;6.07;;;;;;;4.72;76.66;99709.13;5092782;28;20052;-66
2020/12/18 01:05:24;;;;;;;7.82;5.63;;;;;;;4.84;76.77;99703.78;5094184;28;20118;-65
2020/12/18 01:07:51;;;;;;;9.60;6.57;;;;;;;4.86;76.39;99710.56;5094631;28;20046;-66
2020/12/18 01:10:19;;;;;;;8.30;5.90;;;;;;;4.89;76.29;99709.44;5093412;28;20130;-66
2020/12/18 01:12:47;;;;;;;7.40;5.95;;;;;;;4.93;75.89;99705.59;5094584;28;20059;-66
2020/12/18 01:15:15;;;;;;;7.85;5.50;;;;;;;4.85;75.91;99711.50;5094078;28;20423;-66
2020/12/18 01:17:43;;;;;;;9.20;6.40;;;;;;;4.86;76.17;99709.75;5094496;28;20036;-66
2020/12/18 01:20:10;;;;;;;9.25;6.38;;;;;;;4.85;76.09;99706.25;5093094;28;20486;-65
2020/12/18 01:22:37;;;;;;;9.82;6.72;;;;;;;4.81;75.63;99717.16;5093270;28;20536;-66
2020/12/18 01:25:04;;;;;;;9.65;6.70;;;;;;;4.68;75.61;99715.59;5092974;28;20054;-66
2020/12/18 01:27:32;;;;;;;7.43;5.65;;;;;;;4.59;75.94;99715.56;5093069;28;20058;-66
2020/12/18 01:29:59;;;;;;;7.18;5.75;;;;;;;4.55;76.08;99727.25;5094214;28;20409;-66
2020/12/18 01:32:35;;;;;;;7.47;5.65;;;;;;;4.35;76.10;99726.34;5093048;28;20452;-66
2020/12/18 01:35:01;;;;;;;10.13;5.40;;;;;;;4.38;76.26;99720.84;5092615;28;20048;-65
2020/12/18 01:37:28;;;;;;;11.73;6.60;;;;;;;4.28;76.21;99735.66;5092707;28;20046;-65
2020/12/18 01:40:03;;;;;;;10.93;6.20;;;;;;;4.31;76.32;99732.78;5092729;28;20075;-65
2020/12/18 01:42:37;;;;;;;9.30;5.97;;;;;;;4.29;76.34;99732.94;5092872;28;20047;-65
2020/12/18 01:45:05;;;;;;;7.72;6.10;;;;;;;4.22;76.17;99737.84;5092578;28;20064;-66
2020/12/18 01:47:53;;;;;;;8.98;6.97;;;;;;;4.18;76.23;99740.84;5093896;28;20059;-65
2020/12/18 01:50:22;;;;;;;8.45;5.97;;;;;;;4.09;76.35;99731.16;5092629;28;20047;-65
2020/12/18 01:52:54;;;;;;;9.52;6.88;;;;;;;4.10;76.65;99727.59;5092463;28;20056;-65
2020/12/18 01:55:32;;;;;;;9.75;7.20;;;;;;;4.12;76.91;99733.50;5092296;28;20044;-65
2020/12/18 01:58:01;;;;;;;11.18;7.20;;;;;;;4.20;77.13;99731.06;5093733;28;20044;-65
2020/12/18 02:00:36;;;;;;;10.05;6.97;;;;;;;4.16;76.81;99730.53;5092467;28;20071;-66
2020/12/18 02:03:07;;;;;;;10.27;7.47;;;;;;;4.08;76.59;99730.34;5092376;28;20056;-66
2020/12/18 02:05:58;;;;;;;12.75;7.20;;;;;;;4.00;76.78;99734.53;5092335;28;20098;-65
2020/12/18 02:08:43;;;;;;;11.23;7.60;;;;;;;4.01;77.06;99723.13;5092378;28;20071;-65
2020/12/18 02:11:33;;;;;;;10.13;7.28;;;;;;;3.95;76.94;99720.03;5093409;28;20051;-65
2020/12/18 02:14:11;;;;;;;11.63;8.35;;;;;;;3.93;77.37;99726.38;5092568;28;20042;-66
2020/12/18 02:16:39;;;;;;;12.23;7.40;;;;;;;3.92;77.10;99728.16;5092921;28;20697;-66
2020/12/18 02:19:10;;;;;;;12.93;8.07;;;;;;;3.84;77.00;99725.38;5092980;28;20497;-65
2020/12/18 02:21:39;;;;;;;16.63;8.65;;;;;;;3.77;77.40;99713.75;5096388;28;20071;-66
2020/12/18 02:24:10;;;;;;;18.10;9.35;;;;;;;3.76;77.59;99719.09;5095817;28;20135;-65
2020/12/18 02:26:38;;;;;;;17.10;8.20;;;;;;;3.76;77.92;99712.09;5095431;28;20056;-65
2020/12/18 02:29:09;;;;;;;16.73;9.48;;;;;;;3.73;77.75;99717.56;5092666;28;20451;-65
2020/12/18 02:31:48;;;;;;;20.15;10.23;;;;;;;3.76;78.39;99724.34;5092366;28;20085;-65
2020/12/18 02:34:27;;;;;;;14.30;8.45;;;;;;;3.74;78.34;99716.59;5091609;28;20051;-66
2020/12/18 02:36:59;;;;;;;12.95;9.13;;;;;;;3.78;78.22;99728.47;5091859;28;20040;-65
2020/12/18 02:39:30;;;;;;;10.68;8.18;;;;;;;3.76;78.06;99725.16;5091856;28;20123;-65
2020/12/18 02:42:01;;;;;;;11.85;7.20;;;;;;;3.71;78.05;99717.69;5091738;28;20507;-65
2020/12/18 02:44:45;;;;;;;14.50;7.97;;;;;;;3.70;77.73;99718.63;5091305;28;20040;-65
2020/12/18 02:47:34;;;;;;;9.77;6.70;;;;;;;3.64;77.57;99710.47;5089733;28;20066;-65
2020/12/18 02:50:07;;;;;;;8.45;6.65;;;;;;;3.63;77.44;99714.88;5091643;28;20048;-65
2020/12/18 02:52:54;;;;;;;10.95;6.38;;;;;;;3.52;77.34;99721.94;5092416;28;20048;-65
2020/12/18 02:55:47;;;;;;;7.80;6.07;;;;;;;3.46;77.28;99726.69;5091452;28;20054;-65
2020/12/18 02:58:33;;;;;;;16.17;7.07;;;;;;;3.56;77.38;99718.94;5092875;28;20059;-65
2020/12/18 03:01:00;;;;;;;9.82;6.55;;;;;;;3.64;77.07;99724.38;5091668;28;20056;-65
2020/12/18 03:03:27;;;;;;;10.38;6.25;;;;;;;3.74;76.72;99721.84;5091163;28;20055;-65
2020/12/18 03:06:14;;;;;;;9.60;6.18;;;;;;;3.80;76.59;99721.34;5092412;28;20079;-65
2020/12/18 03:08:48;;;;;;;8.48;6.40;;;;;;;3.85;76.47;99727.00;5092732;28;20085;-65
2020/12/18 03:11:15;;;;;;;13.93;7.03;;;;;;;3.89;76.20;99724.97;5091410;28;20052;-65
2020/12/18 03:13:45;;;;;;;9.85;6.90;;;;;;;3.95;76.33;99721.84;5092252;28;20085;-66
2020/12/18 03:16:12;;;;;;;11.95;7.50;;;;;;;4.08;76.39;99719.03;5091025;28;20051;-66
2020/12/18 03:19:12;;;;;;;15.07;8.30;;;;;;;4.09;76.16;99721.53;5091238;28;20040;-66
2020/12/18 03:21:39;;;;;;;12.68;8.05;;;;;;;4.03;76.53;99719.41;5092282;28;20364;-67
2020/12/18 03:24:21;;;;;;;15.27;8.55;;;;;;;4.00;76.30;99724.91;5090577;28;20514;-67
2020/12/18 03:27:08;;;;;;;13.75;8.90;;;;;;;3.97;76.71;99725.16;5091058;28;20059;-66
2020/12/18 03:29:42;;;;;;;13.20;7.72;;;;;;;3.91;76.52;99720.44;5091037;28;20472;-67
2020/12/18 03:32:10;;;;;;;14.50;7.18;;;;;;;3.85;76.72;99723.56;5090999;28;20048;-67
2020/12/18 03:34:42;;;;;;;17.23;8.38;;;;;;;3.75;76.12;99726.09;5090582;28;20047;-66
2020/12/18 03:37:19;;;;;;;14.73;7.78;;;;;;;3.58;76.17;99726.66;5092219;28;20036;-67
2020/12/18 03:39:46;;;;;;;22.73;9.02;;;;;;;3.58;76.95;99726.66;5090803;28;20497;-66
2020/12/18 03:42:21;;;;;;;19.40;8.70;;;;;;;3.71;77.19;99720.31;5091201;28;20529;-66
2020/12/18 03:44:50;;;;;;;25.75;9.65;;;;;;;3.81;77.36;99725.59;5090532;28;20123;-66
2020/12/18 03:47:36;;;;;;;28.25;9.52;;;;;;;3.82;77.23;99729.88;5091127;28;20044;-66
2020/12/18 03:50:16;;;;;;;30.08;9.27;;;;;;;3.79;77.06;99718.84;5090873;28;20055;-66
2020/12/18 03:53:03;;;;;;;45.30;10.43;;;;;;;3.68;76.77;99717.13;5091039;28;20108;-66
2020/12/18 03:55:31;;;;;;;16.85;8.38;;;;;;;3.65;76.74;99726.03;5090300;28;20097;-66
2020/12/18 03:58:15;;;;;;;11.38;7.15;;;;;;;3.50;76.74;99727.28;5090792;28;20044;-66
2020/12/18 04:01:02;;;;;;;17.25;7.55;;;;;;;3.35;76.64;99716.31;5092107;28;20330;-65
2020/12/18 04:03:30;;;;;;;35.53;9.25;;;;;;;3.33;76.95;99726.03;5090388;28;20044;-65
2020/12/18 04:05:58;;;;;;;60.15;10.77;;;;;;;3.40;77.38;99714.13;5090421;28;20094;-66
2020/12/18 04:08:25;;;;;;;95.47;13.85;;;;;;;3.53;77.38;99713.97;5090700;28;20615;-65
2020/12/18 04:11:13;;;;;;;45.80;10.18;;;;;;;3.59;77.43;99716.09;5090962;28;20044;-65
2020/12/18 04:13:51;;;;;;;18.15;8.95;;;;;;;3.69;77.61;99719.59;5090573;28;20131;-65
2020/12/18 04:16:22;;;;;;;15.70;8.88;;;;;;;3.75;77.28;99718.25;5090558;28;20052;-65
2020/12/18 04:18:49;;;;;;;55.88;11.13;;;;;;;3.79;77.42;99708.38;5092065;28;20120;-66
2020/12/18 04:21:18;;;;;;;45.00;9.88;;;;;;;3.78;77.75;99712.78;5090511;28;20054;-66
2020/12/18 04:24:04;;;;;;;30.85;9.85;;;;;;;3.86;77.66;99712.16;5090147;28;20047;-66
2020/12/18 04:26:34;;;;;;;17.70;8.98;;;;;;;3.86;77.83;99710.34;5090461;28;20044;-66
2020/12/18 04:29:03;;;;;;;14.48;9.23;;;;;;;3.94;77.53;99702.69;5090350;28;20071;-66
2020/12/18 04:31:33;;;;;;;41.22;10.50;;;;;;;3.89;77.12;99702.25;5090393;28;20143;-66
2020/12/18 04:34:00;;;;;;;28.85;10.18;;;;;;;3.70;77.10;99696.88;5089976;28;20040;-66
2020/12/18 04:36:42;;;;;;;26.17;10.18;;;;;;;3.60;77.42;99693.38;5090698;28;20413;-66
2020/12/18 04:39:10;;;;;;;24.83;11.23;;;;;;;3.53;77.58;99698.28;5094284;28;20052;-67
2020/12/18 04:41:40;;;;;;;24.40;10.55;;;;;;;3.48;77.85;99697.84;5094049;28;20122;-67
2020/12/18 04:44:14;;;;;;;25.98;10.95;;;;;;;3.46;77.90;99699.72;5093807;28;20036;-66
2020/12/18 04:46:54;;;;;;;18.58;9.43;;;;;;;3.37;78.13;99698.69;5093999;28;20074;-66
2020/12/18 04:49:22;;;;;;;27.27;10.95;;;;;;;3.38;78.41;99702.97;5095223;28;20044;-66
2020/12/18 04:52:01;;;;;;;34.90;12.02;;;;;;;3.33;78.18;99707.75;5094086;28;20056;-66
2020/12/18 04:54:41;;;;;;;34.17;10.02;;;;;;;3.22;78.50;99707.78;5093719;28;20044;-67
2020/12/18 04:57:18;;;;;;;67.25;11.55;;;;;;;3.14;78.65;99704.94;5093953;28;20071;-66
2020/12/18 04:59:48;;;;;;;55.05;12.77;;;;;;;3.04;78.99;99707.47;5095390;28;20040;-66
2020/12/18 05:02:34;;;;;;;55.05;11.73;;;;;;;3.00;79.42;99711.28;5093569;28;20474;-67
2020/12/18 05:05:01;;;;;;;46.38;11.45;;;;;;;2.95;79.62;99714.25;5093398;28;20048;-66
2020/12/18 05:07:40;;;;;;;44.40;10.80;;;;;;;2.92;80.07;99714.50;5095310;28;20123;-66
2020/12/18 05:10:08;;;;;;;63.55;10.73;;;;;;;2.93;80.55;99717.94;5094031;28;20430;-66
2020/12/18 05:12:54;;;;;;;42.38;9.48;;;;;;;3.11;80.92;99713.06;5093459;28;20149;-66
2020/12/18 05:15:33;;;;;;;50.10;9.80;;;;;;;3.14;80.20;99721.47;5093323;28;20047;-66
2020/12/18 05:18:33;;;;;;;34.33;8.57;;;;;;;3.05;80.44;99727.41;5094442;28;20418;-66
2020/12/18 05:21:12;;;;;;;27.05;9.38;;;;;;;3.18;80.85;99728.13;5093802;28;20052;-66
2020/12/18 05:24:02;;;;;;;49.38;10.55;;;;;;;3.27;80.71;99723.94;5093253;28;20064;-66
2020/12/18 05:26:36;;;;;;;30.27;10.00;;;;;;;3.28;80.43;99725.59;5093720;28;20048;-66
2020/12/18 05:29:08;;;;;;;41.58;10.50;;;;;;;3.20;80.39;99720.16;5093912;28;20394;-66
2020/12/18 05:32:01;;;;;;;30.55;9.13;;;;;;;3.23;80.66;99727.75;5095244;28;20135;-66
2020/12/18 05:34:43;;;;;;;25.30;9.05;;;;;;;3.30;80.82;99725.44;5093572;28;20040;-66
2020/12/18 05:37:39;;;;;;;23.42;8.63;;;;;;;3.38;80.78;99720.44;5094760;28;20052;-65
2020/12/18 05:40:33;;;;;;;30.83;8.23;;;;;;;3.38;80.55;99721.25;5084170;28;20052;-65
2020/12/18 05:43:33;;;;;;;20.90;6.53;;;;;;;3.37;80.95;99731.84;5092350;28;20147;-65
2020/12/18 05:46:29;;;;;;;19.17;6.38;;;;;;;3.52;81.02;99724.56;5094995;28;20127;-65
2020/12/18 05:49:31;;;;;;;20.02;5.93;;;;;;;3.47;80.28;99723.16;5095066;28;20044;-65
2020/12/18 05:52:07;;;;;;;22.02;6.35;;;;;;;3.44;80.83;99719.94;5093859;28;20051;-65
2020/12/18 05:54:59;;;;;;;33.72;6.05;;;;;;;3.57;81.22;99728.44;5093549;28;20051;-65
2020/12/18 05:57:35;;;;;;;45.00;6.35;;;;;;;3.59;80.89;99723.09;5094001;28;20052;-65
2020/12/18 06:00:12;;;;;;;26.95;6.40;;;;;;;3.68;81.03;99728.41;5093463;28;20052;-65
2020/12/18 06:03:00;;;;;;;27.50;5.93;;;;;;;3.67;80.64;99718.91;5098240;28;20055;-65
2020/12/18 06:05:38;;;;;;;26.33;5.80;;;;;;;3.63;80.75;99724.50;5098375;28;20044;-65
2020/12/18 06:08:19;;;;;;;24.50;7.20;;;;;;;3.56;80.79;99726.78;5098583;28;20052;-65
2020/12/18 06:10:54;;;;;;;25.15;6.05;;;;;;;3.60;80.90;99727.38;5098762;28;20044;-65
2020/12/18 06:13:46;;;;;;;20.85;6.13;;;;;;;3.62;81.43;99709.75;5097817;28;20104;-65
2020/12/18 06:16:38;;;;;;;17.27;6.00;;;;;;;3.67;81.00;99715.44;5098923;28;20076;-65
2020/12/18 06:19:15;;;;;;;13.13;5.43;;;;;;;3.65;81.09;99714.75;5098711;28;20063;-65
2020/12/18 06:21:51;;;;;;;17.15;5.53;;;;;;;3.67;81.40;99715.44;5099985;28;20101;-66
2020/12/18 06:25:09;;;;;;;12.93;6.32;;;;;;;3.80;81.08;99715.28;5097134;28;20122;-65
2020/12/18 06:28:23;;;;;;;12.75;4.88;;;;;;;3.75;80.64;99717.44;5099313;28;20150;-65
2020/12/18 06:31:23;;;;;;;14.05;5.18;;;;;;;3.53;79.90;99718.38;5097621;28;20044;-65
2020/12/18 06:34:26;;;;;;;15.63;5.43;;;;;;;3.26;80.59;99724.88;5098756;28;20109;-65
2020/12/18 06:37:33;;;;;;;18.13;6.07;;;;;;;3.25;81.36;99723.22;5098704;28;20055;-66
2020/12/18 06:40:29;;;;;;;14.02;4.85;;;;;;;3.27;81.37;99725.72;5098635;28;20044;-66
2020/12/18 06:43:37;;;;;;;12.20;4.95;;;;;;;3.23;81.35;99720.72;5093440;28;20043;-65
2020/12/18 06:46:22;;;;;;;12.38;4.65;;;;;;;3.19;81.08;99715.88;5093175;28;20040;-65
2020/12/18 06:49:09;;;;;;;20.63;5.43;;;;;;;3.27;82.00;99723.94;5098349;28;20056;-66
2020/12/18 06:52:06;;;;;;;8.57;4.53;;;;;;;3.38;81.50;99729.09;5094458;28;20048;-65
2020/12/18 06:54:59;;;;;;;8.15;4.38;;;;;;;3.37;80.89;99722.22;5098699;28;20131;-66
2020/12/18 06:58:12;;;;;;;9.80;4.47;;;;;;;3.39;81.04;99728.16;5100265;28;20048;-65
2020/12/18 07:00:45;;;;;;;12.93;4.70;;;;;;;3.45;81.29;99722.44;5099695;28;20043;-66
2020/12/18 07:03:37;;;;;;;9.50;3.80;;;;;;;3.46;80.35;99721.47;5097753;28;20104;-66
2020/12/18 07:06:07;;;;;;;8.05;3.28;;;;;;;3.42;80.11;99714.00;5091350;28;20514;-66
2020/12/18 07:08:36;;;;;;;8.60;4.28;;;;;;;3.30;79.81;99715.81;5099403;28;20056;-66
2020/12/18 07:11:09;;;;;;;10.68;4.05;;;;;;;3.33;80.40;99709.53;5099346;28;20110;-66
2020/12/18 07:13:40;;;;;;;26.88;4.20;;;;;;;3.30;80.16;99717.59;5096902;28;20054;-65
2020/12/18 07:16:10;;;;;;;7.10;4.03;;;;;;;3.28;80.43;99715.13;5092817;28;20040;-66
2020/12/18 07:18:41;;;;;;;12.70;4.03;;;;;;;3.33;80.62;99719.97;5091140;28;20520;-65
2020/12/18 07:21:14;;;;;;;11.40;4.03;;;;;;;3.35;80.56;99725.94;5092432;28;20032;-66
2020/12/18 07:23:43;;;;;;;10.13;3.97;;;;;;;3.33;80.07;99728.66;5092093;28;20036;-66
2020/12/18 07:26:12;;;;;;;6.10;3.80;;;;;;;3.27;80.20;99717.88;5092131;28;20524;-66
2020/12/18 07:28:42;;;;;;;39.50;5.07;;;;;;;3.21;80.57;99727.84;5092282;28;20044;-66
2020/12/18 07:31:19;;;;;;;13.55;5.00;;;;;;;3.32;80.96;99720.94;5090995;28;20556;-66
2020/12/18 07:33:53;;;;;;;11.38;5.60;;;;;;;3.26;80.16;99713.59;5092284;28;20040;-66
2020/12/18 07:36:28;;;;;;;9.35;4.05;;;;;;;3.15;79.95;99723.13;5092222;28;20061;-66
2020/12/18 07:39:02;;;;;;;7.72;4.18;;;;;;;3.13;80.31;99718.97;5092043;28;20040;-65
2020/12/18 07:41:33;;;;;;;9.75;4.75;;;;;;;3.23;80.23;99720.72;5092221;28;20036;-65
2020/12/18 07:44:11;;;;;;;9.73;4.22;;;;;;;3.26;79.99;99710.97;5090569;28;20044;-65
2020/12/18 07:46:44;;;;;;;9.75;4.28;;;;;;;3.23;79.42;99718.13;5090733;28;20094;-66
2020/12/18 07:49:13;;;;;;;10.02;4.25;;;;;;;3.15;79.39;99725.75;5091991;28;20043;-65
2020/12/18 07:51:43;;;;;;;11.75;4.18;;;;;;;3.04;79.73;99725.75;5090754;28;20040;-66
2020/12/18 07:54:21;;;;;;;8.10;4.25;;;;;;;3.18;79.82;99720.28;5091607;28;20036;-66
2020/12/18 07:56:50;;;;;;;6.50;4.03;;;;;;;3.20;79.19;99718.34;5091954;28;20044;-65
2020/12/18 07:59:23;;;;;;;5.70;3.50;;;;;;;3.12;78.92;99712.09;5092227;28;20040;-65
2020/12/18 08:01:54;;;;;;;;;;;;;;;3.03;79.02;99715.44;5092359;28;20130;-65
2020/12/18 08:04:25;;;;;;;7.53;3.72;;;;;;;2.98;78.88;99719.25;5091848;28;20392;-65
2020/12/18 08:06:59;;;;;;;8.07;3.30;;;;;;;2.99;78.97;99722.69;5091879;28;20035;-66
2020/12/18 08:09:32;;;;;;;10.15;4.18;;;;;;;2.95;78.69;99724.72;5092037;28;20064;-66
2020/12/18 08:12:10;;;;;;;7.00;4.20;;;;;;;2.92;79.14;99730.16;5092703;28;20047;-66
2020/12/18 08:14:38;;;;;;;9.50;4.53;;;;;;;2.98;79.16;99721.88;5095445;28;20043;-66
2020/12/18 08:17:06;;;;;;;9.68;4.50;;;;;;;3.02;78.99;99718.97;5095817;28;20051;-66
2020/12/18 08:19:38;;;;;;;12.57;4.60;;;;;;;3.03;78.90;99715.44;5095915;28;20040;-66
2020/12/18 08:22:06;;;;;;;10.02;4.47;;;;;;;3.01;78.91;99717.34;5095582;28;20044;-66
2020/12/18 08:24:36;;;;;;;6.68;4.60;;;;;;;2.99;78.14;99714.84;5095155;28;20074;-65
2020/12/18 08:27:14;;;;;;;7.75;5.22;;;;;;;3.03;78.50;99716.28;5094300;28;20070;-66
2020/12/18 08:29:45;;;;;;;14.27;5.03;;;;;;;3.08;78.24;99716.72;5095830;28;20043;-65
2020/12/18 08:32:18;;;;;;;7.55;5.07;;;;;;;3.09;78.27;99726.22;5095471;28;20126;-66
2020/12/18 08:34:46;;;;;;;11.25;4.50;;;;;;;3.17;78.40;99723.00;5095040;28;20115;-66
2020/12/18 08:37:26;;;;;;;13.02;5.68;;;;;;;3.20;77.79;99714.91;5095245;28;20044;-66
2020/12/18 08:39:59;;;;;;;12.65;5.18;;;;;;;3.16;77.99;99727.41;5095511;28;20059;-66
2020/12/18 08:42:34;;;;;;;12.30;4.78;;;;;;;3.15;77.60;99714.47;5095191;28;20048;-66
2020/12/18 08:45:09;;;;;;;8.02;5.35;;;;;;;3.20;77.98;99710.50;5094962;28;20032;-66
2020/12/18 08:47:39;;;;;;;5.78;4.20;;;;;;;3.40;78.03;99714.13;5093899;28;20048;-66
2020/12/18 08:50:18;;;;;;;5.80;4.47;;;;;;;3.56;77.50;99711.09;5095204;28;20048;-66
2020/12/18 08:53:07;;;;;;;4.57;3.85;;;;;;;3.66;76.95;99708.56;5095023;28;20451;-65
2020/12/18 08:55:41;;;;;;;3.95;3.03;;;;;;;3.77;76.66;99711.13;5094093;28;20050;-66
2020/12/18 08:58:16;;;;;;;6.95;3.53;;;;;;;3.86;76.08;99715.59;5094907;28;20054;-65
2020/12/18 09:00:49;;;;;;;3.55;3.03;;;;;;;3.79;75.45;99714.44;5095063;28;20063;-66
2020/12/18 09:03:23;;;;;;;3.00;2.67;;;;;;;3.78;75.51;99723.25;5094789;28;20119;-66
2020/12/18 09:05:56;;;;;;;4.32;3.20;;;;;;;3.99;75.95;99718.00;5094604;28;20036;-67
2020/12/18 09:08:34;;;;;;;3.33;2.85;;;;;;;4.18;75.71;99714.69;5095075;28;20347;-66
2020/12/18 09:11:11;;;;;;;5.22;3.53;;;;;;;4.32;75.16;99713.50;5094708;28;20040;-66
2020/12/18 09:13:47;;;;;;;3.35;3.05;;;;;;;4.47;75.10;99715.66;5094447;28;20047;-66
2020/12/18 09:16:17;;;;;;;4.85;3.70;;;;;;;4.64;74.81;99706.34;5094573;28;20036;-66
2020/12/18 09:18:52;;;;;;;12.52;5.35;;;;;;;4.76;74.66;99704.44;5094245;28;20150;-66
2020/12/18 09:21:22;;;;;;;19.27;6.38;;;;;;;4.60;74.07;99704.13;5094521;28;20052;-66
2020/12/18 09:23:54;;;;;;;12.60;4.88;;;;;;;4.45;73.73;99701.88;5093692;28;20040;-66
2020/12/18 09:26:35;;;;;;;9.82;4.93;;;;;;;4.42;74.38;99712.59;5094308;28;20115;-65
2020/12/18 09:29:16;;;;;;;10.00;5.47;;;;;;;4.58;74.38;99711.31;5094417;28;20122;-66
2020/12/18 09:31:47;;;;;;;9.15;5.05;;;;;;;4.52;74.27;99711.81;5093212;28;20044;-66
2020/12/18 09:34:18;;;;;;;11.35;5.60;;;;;;;4.59;74.34;99711.16;5093979;28;20044;-67
2020/12/18 09:36:51;;;;;;;12.32;6.03;;;;;;;4.76;74.89;99708.88;5094263;28;20063;-66
2020/12/18 09:39:19;;;;;;;15.57;6.82;;;;;;;4.95;74.66;99708.94;5092830;28;20501;-66
2020/12/18 09:41:47;;;;;;;25.40;9.27;;;;;;;4.97;74.28;99709.59;5093986;28;20068;-67
2020/12/18 09:44:15;;;;;;;5.40;4.70;;;;;;;4.96;73.66;99706.16;5092502;28;20140;-67
2020/12/18 09:46:45;;;;;;;6.90;4.28;;;;;;;4.94;73.63;99702.88;5092740;28;20043;-66
2020/12/18 09:49:14;;;;;;;6.07;4.70;;;;;;;4.90;73.89;99700.66;5092659;28;20078;-66
2020/12/18 09:51:48;;;;;;;8.32;5.70;;;;;;;4.84;74.02;99703.78;5093992;28;20418;-66
2020/12/18 09:54:18;;;;;;;8.30;5.55;;;;;;;4.72;74.32;99703.88;5092324;28;20044;-66
2020/12/18 09:56:47;;;;;;;9.27;5.70;;;;;;;4.81;74.15;99702.25;5093752;28;20112;-67
2020/12/18 09:59:15;;;;;;;11.15;5.43;;;;;;;4.79;74.26;99698.13;5092371;28;20036;-66
2020/12/18 10:01:42;;;;;;;13.00;6.20;;;;;;;4.77;74.64;99695.63;5092345;28;20040;-66
2020/12/18 10:04:14;;;;;;;15.65;6.80;;;;;;;4.72;74.62;99692.59;5093376;28;20051;-66
2020/12/18 10:06:47;;;;;;;9.73;6.53;;;;;;;4.76;74.79;99691.34;5092687;28;20060;-66
2020/12/18 10:09:14;;;;;;;9.02;6.60;;;;;;;4.91;74.88;99692.66;5093669;28;20111;-66
2020/12/18 10:11:41;;;;;;;8.75;6.75;;;;;;;4.97;74.75;99683.41;5093567;28;20555;-67
2020/12/18 10:14:08;;;;;;;9.20;6.53;;;;;;;5.02;74.85;99677.75;5093301;28;20051;-68
2020/12/18 10:16:35;;;;;;;28.90;6.88;;;;;;;5.17;74.81;99674.59;5093549;28;20043;-67
2020/12/18 10:19:01;;;;;;;15.45;7.50;;;;;;;5.13;74.79;99673.22;5093417;28;20497;-67
2020/12/18 10:21:31;;;;;;;14.13;7.25;;;;;;;5.09;74.41;99668.38;5093519;28;20047;-68
2020/12/18 10:23:58;;;;;;;12.18;5.43;;;;;;;5.09;74.62;99668.38;5093333;28;20044;-67
2020/12/18 10:26:25;;;;;;;11.75;6.07;;;;;;;5.12;74.77;99668.94;5093295;28;20040;-67
2020/12/18 10:28:51;;;;;;;9.32;5.75;;;;;;;5.13;74.67;99659.28;5093361;28;20387;-65
2020/12/18 10:31:18;;;;;;;8.35;4.90;;;;;;;5.18;74.96;99657.06;5093302;28;20044;-67
2020/12/18 10:33:46;;;;;;;12.77;5.53;;;;;;;5.26;74.66;99662.47;5091729;28;20048;-66
2020/12/18 10:36:12;;;;;;;13.27;6.32;;;;;;;5.38;74.77;99648.25;5092609;28;20468;-68
2020/12/18 10:38:40;;;;;;;8.45;5.65;;;;;;;5.43;74.62;99645.25;5091999;28;20054;-67
2020/12/18 10:41:08;;;;;;;8.50;5.88;;;;;;;5.53;74.17;99635.56;5093016;28;20050;-68
2020/12/18 10:43:34;;;;;;;13.27;6.72;;;;;;;5.54;74.17;99639.81;5093379;28;20044;-67
2020/12/18 10:46:01;;;;;;;11.85;6.45;;;;;;;5.42;74.41;99639.16;5092883;28;20055;-67
2020/12/18 10:48:28;;;;;;;23.05;7.13;;;;;;;5.43;74.69;99643.44;5093213;28;20127;-66
2020/12/18 10:50:55;;;;;;;17.13;7.07;;;;;;;5.21;74.96;99641.09;5093146;28;20044;-67
2020/12/18 10:53:21;;;;;;;17.15;7.22;;;;;;;5.21;75.00;99643.72;5092736;28;20490;-67
2020/12/18 10:55:49;;;;;;;17.17;8.50;;;;;;;5.28;74.99;99644.00;5092888;28;20046;-67
2020/12/18 10:58:16;;;;;;;15.77;8.90;;;;;;;5.32;75.28;99629.66;5093419;28;20123;-66
2020/12/18 11:00:43;;;;;;;15.27;8.88;;;;;;;5.31;75.03;99622.75;5093993;28;20097;-67
2020/12/18 11:03:10;;;;;;;11.93;8.48;;;;;;;5.23;75.51;99623.44;5099498;28;20441;-69
2020/12/18 11:05:37;;;;;;;15.35;10.45;;;;;;;5.35;75.57;99621.50;5100138;28;20044;-68
2020/12/18 11:08:04;;;;;;;14.65;9.55;;;;;;;5.43;75.79;99625.09;5094392;28;20048;-68
2020/12/18 11:10:31;;;;;;;8.77;7.35;;;;;;;5.53;75.68;99619.00;5092728;28;20051;-68
2020/12/18 11:12:59;;;;;;;10.63;8.18;;;;;;;5.56;75.34;99611.69;5092959;28;20547;-68
2020/12/18 11:15:25;;;;;;;41.47;12.15;;;;;;;5.55;75.48;99615.28;5091638;28;20048;-71
2020/12/18 11:17:52;;;;;;;28.85;13.95;;;;;;;5.64;75.34;99605.72;5091598;28;20416;-68
2020/12/18 11:20:19;;;;;;;21.52;12.57;;;;;;;5.71;75.54;99612.03;5092622;28;20517;-68
2020/12/18 11:22:45;;;;;;;18.83;12.25;;;;;;;5.84;75.53;99606.50;5092692;28;20067;-67
2020/12/18 11:25:12;;;;;;;17.15;9.40;;;;;;;5.86;75.32;99602.75;5091991;28;20044;-67
2020/12/18 11:27:39;;;;;;;21.40;8.73;;;;;;;5.89;75.44;99606.91;5092479;28;20043;-66
2020/12/18 11:30:06;;;;;;;14.63;9.20;;;;;;;5.82;75.55;99611.06;5092488;28;20052;-69
2020/12/18 11:32:33;;;;;;;24.90;9.02;;;;;;;5.78;75.86;99609.69;5092409;28;20552;-68
2020/12/18 11:35:00;;;;;;;11.98;7.20;;;;;;;5.80;76.05;99610.41;5092263;28;20456;-69
2020/12/18 11:37:26;;;;;;;16.58;7.78;;;;;;;5.85;76.12;99608.97;5091199;28;20065;-67
2020/12/18 11:39:53;;;;;;;11.98;7.20;;;;;;;5.83;76.19;99612.72;5092094;28;20039;-68
2020/12/18 11:42:21;;;;;;;37.53;8.60;;;;;;;5.86;76.37;99612.44;5092044;28;20444;-68
2020/12/18 11:44:48;;;;;;;12.13;6.97;;;;;;;5.94;76.21;99608.16;5091948;28;20048;-68
2020/12/18 11:47:15;;;;;;;13.90;6.03;;;;;;;6.01;76.41;99605.78;5097161;28;20039;-68
2020/12/18 11:49:42;;;;;;;31.95;7.20;;;;;;;5.95;76.41;99593.22;5099129;28;20043;-67
2020/12/18 11:52:09;;;;;;;13.75;7.20;;;;;;;6.13;76.40;99594.13;5099243;28;20050;-68
2020/12/18 11:54:36;;;;;;;11.15;7.15;;;;;;;6.30;76.19;99589.09;5097463;28;20086;-68
2020/12/18 11:57:03;;;;;;;9.35;7.63;;;;;;;6.41;76.26;99587.09;5097565;28;20051;-68
2020/12/18 11:59:30;;;;;;;11.73;8.27;;;;;;;6.50;75.90;99592.44;5099097;28;20058;-68
2020/12/18 12:01:56;;;;;;;11.70;8.38;;;;;;;6.54;75.83;99591.19;5099294;28;20051;-68
2020/12/18 12:04:24;;;;;;;30.92;9.05;;;;;;;6.62;75.83;99586.00;5097374;28;20048;-68
2020/12/18 12:06:51;;;;;;;18.73;8.43;;;;;;;6.65;75.64;99589.16;5098912;28;20043;-70
2020/12/18 12:09:19;;;;;;;14.18;10.20;;;;;;;6.65;75.98;99583.06;5097859;28;20410;-70